Latest Weather Observations for Sheffield

IDT60801

Issued at 2:32 pm EDT Sunday 26 February 2017 (issued every 30 minutes, with the page automatically refreshed every 10 minutes)

About weather observations | Map of weather stations | Latest weather observations for TAS | Other Formats
Station Details ID: 091291 Name: SHEFFIELD SCHOOL FARM Lat: -41.39 Lon: 146.32 Height: 294.2 m
Data from the previous 72 hours. | See also: Recent months at Sheffield
Date/Time
EDT
Temp
°C
App
Temp
°C
Dew
Point
°C
Rel
Hum
%
Delta-T
°C
Wind Press
QNH
hPa
Press
MSL
hPa
Rain since
9am
mm
Dir  Spd
km/h
Gust
km/h
Spd
kts
Gust
kts
26/02:30pm 17.0 15.3 8.2 56 4.5 NNE 7 13 4 7 1026.4 1025.8 0.0
26/02:00pm 16.9 15.4 9.1 60 4.1 NW 7 9 4 5 1026.6 1026.0 0.0
26/01:30pm 18.0 16.6 9.4 57 4.6 NNW 7 13 4 7 1026.6 1026.0 0.0
26/01:00pm 16.5 15.4 8.5 59 4.1 NNE 4 11 2 6 1026.8 1026.2 0.0
26/12:30pm 17.1 15.4 9.8 62 3.9 NNW 9 13 5 7 1027.1 1026.5 0.0
26/12:00pm 15.3 13.6 8.5 64 3.5 N 7 11 4 6 1027.4 1026.9 0.0
26/11:30am 15.1 13.5 8.8 66 3.3 N 7 11 4 6 1027.4 1026.9 0.0
26/11:00am 15.4 13.8 8.6 64 3.5 NNE 7 13 4 7 1027.6 1027.1 0.0
26/10:30am 15.3 13.8 9.0 66 3.3 NNE 7 15 4 8 1027.6 1027.1 0.0
26/10:00am 14.7 13.9 9.7 72 2.6 ENE 4 11 2 6 1027.3 1026.8 0.0
26/09:30am 13.8 13.1 10.0 78 2.0 SE 4 7 2 4 1027.4 1026.9 0.0
26/09:00am 12.9 11.7 9.7 81 1.6 SE 6 7 3 4 1027.2 1026.7 0.0
26/08:30am 12.4 11.4 10.3 87 1.1 SSE 6 6 3 3 1027.1 1026.5 0.0
26/08:00am 11.9 11.3 10.5 91 0.7 SE 4 6 2 3 1026.7 1026.1 0.0
26/07:30am 11.7 11.9 10.4 92 0.7 CALM 0 4 0 2 1026.4 1025.8 0.0
26/07:00am 11.5 10.5 10.4 93 0.6 SSW 6 9 3 5 1026.4 1025.8 0.0
26/06:30am 11.5 10.9 10.4 93 0.6 SSW 4 6 2 3 1025.9 1025.4 0.0
26/06:00am 11.7 10.6 10.6 93 0.6 SSW 7 9 4 5 1025.8 1025.3 0.0
26/05:30am 11.8 11.5 10.0 89 0.9 SE 2 4 1 2 1025.3 1024.8 0.0
26/05:00am 12.0 12.1 10.2 89 0.9 CALM 0 0 0 0 1025.5 1025.0 0.0
26/04:30am 12.1 11.5 10.3 89 0.9 SSW 4 7 2 4 1025.5 1025.0 0.0
26/04:00am 12.0 12.2 10.4 90 0.8 CALM 0 0 0 0 1025.4 1024.9 0.0
26/03:30am 12.0 11.4 10.4 90 0.8 S 4 6 2 3 1025.8 1025.3 0.0
26/03:00am 12.0 11.8 10.4 90 0.8 SW 2 4 1 2 1025.9 1025.4 0.0
26/02:30am 12.0 12.1 10.2 89 0.9 CALM 0 0 0 0 1026.0 1025.5 0.0
26/02:00am 12.1 11.9 10.5 90 0.8 E 2 6 1 3 1026.4 1025.8 0.0
26/01:30am 12.0 12.3 10.9 93 0.6 CALM 0 0 0 0 1026.7 1026.1 0.0
26/01:00am 12.1 11.0 10.8 92 0.7 NNW 7 9 4 5 1026.9 1026.3 0.0
26/12:30am 12.3 11.3 10.9 91 0.7 NNW 7 9 4 5 1026.9 1026.3 0.0
26/12:00am 12.6 11.5 10.8 89 0.9 NNW 7 11 4 6 1026.9 1026.3 0.0
 
Date/Time
EDT
Temp
°C
App
Temp
°C
Dew
Point
°C
Rel
Hum
%
Delta-T
°C
Wind Press
QNH
hPa
Press
MSL
hPa
Rain since
9am
mm
Dir  Spd
km/h
Gust
km/h
Spd
kts
Gust
kts
25/11:30pm 12.9 11.9 11.0 88 1.0 NNW 7 9 4 5 1026.9 1026.3 0.0
25/11:00pm 13.1 12.1 11.0 87 1.1 NNW 7 11 4 6 1026.8 1026.2 0.0
25/10:30pm 13.3 12.2 10.8 85 1.3 NW 7 11 4 6 1026.7 1026.1 0.0
25/10:00pm 13.5 12.6 10.5 82 1.6 NW 6 9 3 5 1026.7 1026.1 0.0
25/09:30pm 13.3 12.1 10.3 82 1.6 NW 7 9 4 5 1026.5 1025.9 0.0
25/09:00pm 13.4 10.6 10.0 80 1.8 NNW 15 19 8 10 1026.0 1025.5 0.0
25/08:30pm 13.7 10.9 9.9 78 2.0 NNW 15 20 8 11 1026.0 1025.5 0.0
25/08:00pm 13.6 10.7 9.5 76 2.1 N 15 22 8 12 1025.7 1025.2 0.0
25/07:30pm 14.3 10.9 9.1 71 2.7 NNW 17 20 9 11 1025.4 1024.9 0.0
25/07:00pm 15.2 11.7 8.7 65 3.3 NNW 17 22 9 12 1025.1 1024.6 0.0
25/06:30pm 15.8 11.7 8.5 62 3.8 NNW 20 28 11 15 1024.8 1024.3 0.0
25/06:00pm 16.8 12.4 9.0 60 4.1 NNW 22 30 12 16 1024.5 1024.0 0.0
25/05:30pm 17.3 12.8 8.7 57 4.5 NNW 22 28 12 15 1024.7 1024.2 0.0
25/05:00pm 17.8 13.2 8.1 53 5.0 N 22 30 12 16 1024.7 1024.2 0.0
25/04:30pm 18.2 13.5 7.9 51 5.3 NNW 22 30 12 16 1024.6 1024.1 0.0
25/04:00pm 18.4 14.2 8.1 51 5.3 NNW 20 32 11 17 1024.5 1024.0 0.0
25/03:30pm 18.9 14.7 8.3 50 5.6 NNW 20 32 11 17 1024.5 1024.0 0.0
25/03:00pm 18.5 14.6 7.3 48 5.7 NW 17 24 9 13 1024.8 1024.3 0.0
25/02:30pm 18.4 15.1 8.1 51 5.4 NW 15 24 8 13 1025.3 1024.8 0.0
25/02:00pm 17.9 15.2 7.3 50 5.4 NNW 11 20 6 11 1025.6 1025.1 0.0
25/01:30pm 17.9 15.5 7.0 49 5.5 N 9 17 5 9 1025.7 1025.2 0.0
25/01:00pm 17.6 15.0 7.9 53 5.0 NW 11 15 6 8 1026.0 1025.5 0.0
25/12:30pm 18.4 16.3 6.6 46 6.0 E 7 17 4 9 1025.9 1025.4 0.0
25/12:00pm 16.0 13.7 5.0 48 5.3 SE 6 9 3 5 1026.4 1025.8 0.0
25/11:30am 15.9 13.2 5.8 51 4.9 E 9 15 5 8 1026.4 1025.8 0.0
25/11:00am 14.8 12.0 5.1 52 4.6 E 9 13 5 7 1026.5 1025.9 0.0
25/10:30am 13.4 10.2 5.1 57 3.9 ESE 11 15 6 8 1026.7 1026.1 0.0
25/10:00am 13.5 10.3 5.2 57 3.9 SE 11 17 6 9 1026.5 1025.9 0.0
25/09:30am 12.7 9.5 4.9 59 3.7 SE 11 15 6 8 1026.4 1025.8 0.0
25/09:00am 11.7 8.5 4.9 63 3.1 ESE 11 15 6 8 1026.3 1025.7 0.0
25/08:30am 10.8 7.6 5.1 68 2.6 SE 11 15 6 8 1026.3 1025.7 0.0
25/08:00am 10.3 7.9 5.3 71 2.3 SE 7 11 4 6 1026.0 1025.5 0.0
25/07:30am 9.9 6.7 5.1 72 2.2 SE 11 17 6 9 1025.5 1025.0 0.0
25/07:00am 9.9 7.2 5.5 74 2.0 ESE 9 11 5 6 1025.2 1024.7 0.0
25/06:30am 9.6 7.4 5.4 75 1.9 ESE 6 9 3 5 1024.9 1024.4 0.0
25/06:00am 8.9 6.0 4.7 75 1.9 SE 9 11 5 6 1024.6 1024.1 0.0
25/05:30am 10.4 8.9 5.0 69 2.5 SSE 2 6 1 3 1024.4 1023.9 0.0
25/05:00am 10.4 8.9 4.8 68 2.6 S 2 4 1 2 1024.3 1023.8 0.0
25/04:30am 10.3 8.4 4.9 69 2.5 S 4 6 2 3 1024.3 1023.8 0.0
25/04:00am 10.2 7.9 5.0 70 2.4 S 6 6 3 3 1024.3 1023.8 0.0
25/03:30am 10.3 8.1 5.1 70 2.4 SSE 6 9 3 5 1024.2 1023.7 0.0
25/03:00am 10.3 7.9 5.1 70 2.4 SE 7 9 4 5 1024.1 1023.5 0.0
25/02:30am 10.0 8.4 4.6 69 2.5 ESE 2 6 1 3 1024.1 1023.5 0.0
25/02:00am 10.1 7.7 4.3 67 2.6 SE 6 7 3 4 1024.1 1023.5 0.0
25/01:30am 11.2 9.5 4.2 62 3.2 SE 2 6 1 3 1024.0 1023.4 0.0
25/01:00am 10.4 8.7 4.1 65 2.8 NE 2 4 1 2 1023.9 1023.3 0.0
25/12:30am 10.8 8.7 4.0 63 3.1 SW 4 6 2 3 1023.6 1023.0 0.0
25/12:00am 11.6 10.3 3.9 59 3.5 CALM 0 0 0 0 1023.5 1022.9 0.0
 
Date/Time
EDT
Temp
°C
App
Temp
°C
Dew
Point
°C
Rel
Hum
%
Delta-T
°C
Wind Press
QNH
hPa
Press
MSL
hPa
Rain since
9am
mm
Dir  Spd
km/h
Gust
km/h
Spd
kts
Gust
kts
24/11:30pm 11.3 8.9 4.1 61 3.3 E 6 7 3 4 1023.5 1022.9 0.0
24/11:00pm 9.7 7.2 4.7 71 2.3 ENE 7 11 4 6 1023.3 1022.7 0.0
24/10:30pm 11.7 10.0 4.2 60 3.4 S 2 6 1 3 1022.8 1022.2 0.0
24/10:00pm 12.5 9.3 5.0 60 3.5 SSW 11 17 6 9 1022.8 1022.2 0.0
24/09:30pm 13.3 10.5 5.2 58 3.8 SSW 9 17 5 9 1022.8 1022.2 0.0
24/09:00pm 13.4 8.8 5.8 60 3.6 SW 19 26 10 14 1022.3 1021.8 0.0
24/08:30pm 13.9 8.8 5.8 58 3.9 SW 22 35 12 19 1021.9 1021.4 0.0
24/08:00pm 14.4 9.9 6.3 58 3.9 WSW 19 28 10 15 1021.8 1021.3 0.0
24/07:30pm 15.4 10.9 6.9 57 4.2 WSW 20 30 11 16 1021.6 1021.1 0.0
24/07:00pm 15.8 11.5 6.8 55 4.5 WSW 19 26 10 14 1021.5 1021.0 0.0
24/06:30pm 16.7 12.0 5.9 49 5.3 SW 20 30 11 16 1021.4 1020.9 0.0
24/06:00pm 17.6 12.5 5.9 46 5.8 SW 22 30 12 16 1021.1 1020.5 0.0
24/05:30pm 18.9 14.2 6.1 43 6.4 SW 20 30 11 16 1020.7 1020.1 0.0
24/05:00pm 19.0 14.8 5.5 41 6.7 SW 17 28 9 15 1020.5 1019.9 0.0
24/04:30pm 17.7 12.1 5.6 45 6.0 SW 24 37 13 20 1020.4 1019.8 0.0
24/04:00pm 19.1 13.5 5.2 40 6.8 WSW 24 39 13 21 1020.2 1019.6 0.0
24/03:30pm 19.5 15.4 6.3 42 6.7 SW 17 32 9 17 1020.4 1019.8 0.0
24/03:00pm 19.3 15.0 7.1 45 6.2 SW 19 28 10 15 1020.7 1020.1 0.0
24/02:30pm 18.3 13.7 5.8 44 6.2 WSW 19 30 10 16 1020.7 1020.1 0.0
24/02:00pm 18.6 14.5 6.1 44 6.2 SW 17 28 9 15 1020.6 1020.0 0.0
24/01:30pm 18.5 13.9 5.7 43 6.4 SSW 19 33 10 18 1020.6 1020.0 0.0
24/01:00pm 17.9 13.1 5.8 45 6.0 SW 20 32 11 17 1020.8 1020.2 0.0
24/12:30pm 17.2 12.8 6.7 50 5.3 SW 19 30 10 16 1020.9 1020.3 0.0
24/12:00pm 17.5 13.2 7.0 50 5.3 WSW 19 30 10 16 1021.2 1020.6 0.0
24/11:30am 16.2 11.1 5.8 50 5.1 SW 22 33 12 18 1021.2 1020.6 0.0
24/11:00am 16.5 11.0 6.1 50 5.1 SW 24 33 13 18 1021.1 1020.5 0.0
24/10:30am 16.1 11.5 6.5 53 4.8 SW 20 32 11 17 1021.2 1020.6 0.0
24/10:00am 14.6 8.8 6.2 57 4.1 SW 26 39 14 21 1021.0 1020.4 0.0
24/09:30am 14.9 10.2 6.2 56 4.3 SW 20 30 11 16 1020.8 1020.2 0.0
24/09:00am 13.2 8.9 5.4 59 3.7 SW 17 24 9 13 1020.7 1020.1 0.0
24/08:30am 13.1 10.1 6.0 62 3.4 W 11 19 6 10 1020.4 1019.8 0.0
24/08:00am 12.5 9.4 5.7 63 3.2 WSW 11 20 6 11 1020.0 1019.4 0.0
24/07:30am 11.5 8.8 5.6 67 2.8 W 9 13 5 7 1019.8 1019.2 0.0
24/07:00am 11.4 9.2 6.3 71 2.4 W 7 13 4 7 1019.7 1019.1 0.0
24/06:30am 11.2 7.9 6.3 72 2.3 WSW 13 20 7 11 1019.4 1018.8 0.0
24/06:00am 10.1 7.9 6.4 78 1.7 W 7 11 4 6 1019.0 1018.5 0.0
24/05:30am 9.9 7.8 6.6 80 1.6 W 7 11 4 6 1018.5 1018.0 0.0
24/05:00am 10.2 7.7 6.5 78 1.8 W 9 11 5 6 1018.5 1018.0 0.0
24/04:30am 10.1 7.9 6.4 78 1.8 W 7 9 4 5 1018.2 1017.6 0.0
24/04:00am 10.4 8.4 6.9 79 1.7 WSW 7 9 4 5 1018.4 1017.9 0.0
24/03:30am 10.0 7.4 6.3 78 1.7 SW 9 11 5 6 1018.5 1018.0 0.0
24/03:00am 11.4 9.5 6.5 72 2.3 WNW 6 7 3 4 1018.1 1017.5 0.0
24/02:30am 11.4 10.6 6.7 73 2.3 CALM 0 0 0 0 1018.3 1017.8 0.0
24/02:00am 12.2 10.3 6.5 68 2.7 W 6 9 3 5 1018.5 1018.0 0.0
24/01:30am 12.2 9.3 6.5 68 2.8 W 11 15 6 8 1018.5 1018.0 0.0
24/01:00am 12.6 10.2 7.1 69 2.7 W 9 13 5 7 1018.4 1017.9 0.0
24/12:30am 13.7 10.0 8.1 69 2.8 WSW 17 24 9 13 1018.4 1017.9 0.0
24/12:00am 13.6 10.3 9.5 76 2.1 W 17 24 9 13 1018.5 1018.0 0.0
 
Date/Time
EDT
Temp
°C
App
Temp
°C
Dew
Point
°C
Rel
Hum
%
Delta-T
°C
Wind Press
QNH
hPa
Press
MSL
hPa
Rain since
9am
mm
Dir  Spd
km/h
Gust
km/h
Spd
kts
Gust
kts
23/11:30pm 13.6 9.9 9.5 76 2.1 WSW 19 24 10 13 1018.5 1018.0 0.0
23/11:00pm 13.8 9.9 9.6 76 2.2 WSW 20 24 11 13 1018.5 1018.0 0.0
23/10:30pm 13.9 10.6 9.5 75 2.3 WSW 17 20 9 11 1018.4 1017.9 0.0
23/10:00pm 14.6 11.3 9.6 72 2.6 WSW 17 24 9 13 1018.4 1017.9 0.0
23/09:30pm 15.3 12.5 9.9 70 2.9 W 15 19 8 10 1018.1 1017.5 0.0
23/09:00pm 15.6 12.4 9.9 69 3.0 W 17 24 9 13 1017.7 1017.1 0.0
23/08:30pm 15.9 12.3 10.0 68 3.1 W 19 30 10 16 1016.9 1016.3 0.0
23/08:00pm 16.8 11.9 10.0 64 3.6 WSW 26 35 14 19 1016.3 1015.7 0.0
23/07:30pm 18.2 14.1 10.1 59 4.4 WSW 22 30 12 16 1015.9 1015.3 0.0
23/07:00pm 19.6 15.6 10.3 55 5.1 WSW 22 30 12 16 1015.4 1014.9 0.0
23/06:30pm 20.7 17.0 10.2 51 5.8 WSW 20 30 11 16 1015.0 1014.4 0.0
23/06:00pm 21.4 17.7 10.3 49 6.1 WSW 20 28 11 15 1014.6 1014.0 0.0
23/05:30pm 21.7 18.0 10.2 48 6.3 WSW 20 28 11 15 1014.4 1013.8 0.0
23/05:00pm 22.0 18.4 9.9 46 6.6 WSW 19 30 10 16 1014.0 1013.4 0.0
23/04:30pm 22.4 19.4 10.5 47 6.6 WSW 17 28 9 15 1013.6 1013.0 0.0
23/04:00pm 21.9 19.0 11.0 50 6.1 WNW 17 28 9 15 1013.7 1013.1 0.0
23/03:30pm 21.9 19.2 10.4 48 6.4 WSW 15 26 8 14 1013.7 1013.1 0.0
23/03:00pm 21.4 17.8 9.9 48 6.3 WSW 19 30 10 16 1013.7 1013.1 0.0

Other Formats:

Comma delimited format used in spreadsheet applications
http://www.bom.gov.au/fwo/IDT60801/IDT60801.94955.axf

JavaScript Object Notation format (JSON) in row-major order
http://www.bom.gov.au/fwo/IDT60801/IDT60801.94955.json